createdAt,value
2022-10-18T00:00:24.850Z,71.87
2022-10-18T00:02:52.403Z,71.18
2022-10-18T00:05:19.982Z,71.26
2022-10-18T00:07:47.551Z,71.29
2022-10-18T00:10:15.183Z,72.24
2022-10-18T00:12:42.770Z,72.17
2022-10-18T00:15:12.246Z,72.28
2022-10-18T00:17:41.191Z,70.30
2022-10-18T00:20:09.932Z,69.02
2022-10-18T00:22:38.806Z,71.80
2022-10-18T00:25:08.336Z,69.12
2022-10-18T00:27:36.580Z,69.76
2022-10-18T00:30:05.032Z,68.69
2022-10-18T00:32:37.248Z,68.40
2022-10-18T00:35:07.887Z,68.73
2022-10-18T00:37:36.259Z,68.98
2022-10-18T00:40:04.670Z,69.26
2022-10-18T00:42:34.577Z,69.19
2022-10-18T00:45:17.848Z,69.62
2022-10-18T00:47:49.610Z,69.39
2022-10-18T00:50:20.559Z,69.43
2022-10-18T00:52:53.202Z,69.39
2022-10-18T00:55:21.416Z,69.36
2022-10-18T00:57:50.564Z,69.46
2022-10-18T01:00:19.535Z,69.40
2022-10-18T01:02:48.081Z,69.45
2022-10-18T01:05:18.652Z,69.51
2022-10-18T01:08:06.683Z,70.06
2022-10-18T01:10:42.991Z,69.82
2022-10-18T01:13:27.133Z,71.08
2022-10-18T01:16:00.523Z,69.76
2022-10-18T01:18:35.989Z,69.67
2022-10-18T01:21:18.074Z,70.28
2022-10-18T01:24:15.569Z,69.59
2022-10-18T01:27:10.006Z,69.93
2022-10-18T01:29:48.794Z,69.96
2022-10-18T01:32:22.351Z,69.35
2022-10-18T01:34:53.712Z,70.57
2022-10-18T01:37:23.556Z,70.03
2022-10-18T01:39:55.424Z,70.34
2022-10-18T01:42:22.986Z,68.24
2022-10-18T01:44:53.102Z,68.06
2022-10-18T01:47:22.729Z,70.21
2022-10-18T01:49:50.312Z,69.73
2022-10-18T01:52:17.877Z,69.30
2022-10-18T01:54:49.969Z,70.58
2022-10-18T01:57:24.850Z,71.70
2022-10-18T01:59:59.152Z,73.03
2022-10-18T02:02:42.436Z,69.75
2022-10-18T02:05:19.040Z,70.75
2022-10-18T02:08:05.643Z,68.36
2022-10-18T02:10:46.635Z,70.68
2022-10-18T02:13:17.022Z,68.45
2022-10-18T02:15:48.892Z,68.17
2022-10-18T02:18:21.903Z,68.58
2022-10-18T02:20:50.976Z,68.33
2022-10-18T02:23:24.009Z,71.48
2022-10-18T02:25:52.939Z,71.84
2022-10-18T02:28:20.653Z,71.83
2022-10-18T02:30:54.413Z,70.61
2022-10-18T02:33:33.642Z,70.00
2022-10-18T02:36:08.348Z,68.64
2022-10-18T02:38:36.188Z,68.34
2022-10-18T02:43:39.799Z,69.74
2022-10-18T02:55:51.105Z,69.58
2022-10-18T03:05:14.908Z,68.94
2022-10-18T03:07:42.867Z,69.64
2022-10-18T03:10:11.028Z,71.11
2022-10-18T03:12:42.627Z,71.67
2022-10-18T03:26:28.195Z,68.74
2022-10-18T03:54:38.804Z,69.54
2022-10-18T03:57:20.997Z,70.60
2022-10-18T04:00:07.586Z,70.70
2022-10-18T04:18:46.083Z,70.21
2022-10-18T04:21:13.967Z,71.12
2022-10-18T04:26:34.286Z,71.04
2022-10-18T04:29:12.349Z,71.91
2022-10-18T05:07:05.321Z,71.67
2022-10-18T06:05:08.945Z,71.09
2022-10-18T06:52:20.923Z,68.85
2022-10-18T06:55:11.999Z,69.21
2022-10-18T07:00:49.374Z,68.08
2022-10-18T07:06:50.892Z,68.45
2022-10-18T07:15:51.058Z,67.13
2022-10-18T07:22:30.259Z,66.95
2022-10-18T07:54:42.907Z,57.18
2022-10-18T07:57:10.596Z,55.82
2022-10-18T07:59:38.785Z,54.71
2022-10-18T08:02:06.399Z,54.30
2022-10-18T08:04:34.028Z,53.88
2022-10-18T08:07:01.570Z,53.47
2022-10-18T08:09:29.336Z,54.54
2022-10-18T08:11:58.223Z,52.34
2022-10-18T08:14:25.741Z,51.81
2022-10-18T08:16:53.377Z,51.43
2022-10-18T08:19:20.892Z,51.85
2022-10-18T08:21:48.489Z,50.62
2022-10-18T08:24:16.078Z,51.19
2022-10-18T08:26:43.769Z,50.18
2022-10-18T08:29:31.677Z,48.51
2022-10-18T08:31:59.572Z,50.32
2022-10-18T08:34:27.218Z,48.54
2022-10-18T08:36:54.845Z,49.13
2022-10-18T08:39:22.509Z,47.86
2022-10-18T08:42:08.855Z,46.28
2022-10-18T08:44:44.887Z,43.58
2022-10-18T08:47:15.968Z,41.58
2022-10-18T08:49:47.562Z,39.75
2022-10-18T08:52:20.186Z,39.36
2022-10-18T08:54:56.637Z,38.53
2022-10-18T08:57:24.212Z,37.61
2022-10-18T08:59:53.163Z,37.73
2022-10-18T09:02:36.487Z,36.96
2022-10-18T09:05:14.361Z,37.12
2022-10-18T09:08:38.737Z,37.52
2022-10-18T09:11:16.357Z,36.30
2022-10-18T09:14:03.990Z,36.83
2022-10-18T09:16:41.435Z,35.03
2022-10-18T09:19:21.546Z,33.18
2022-10-18T09:21:52.740Z,30.85
2022-10-18T09:24:28.080Z,29.91
2022-10-18T09:27:01.873Z,29.21
2022-10-18T09:29:43.728Z,29.66
2022-10-18T09:32:25.442Z,29.90
2022-10-18T09:34:57.458Z,28.35
2022-10-18T09:37:28.182Z,28.64
2022-10-18T09:40:04.013Z,27.58
2022-10-18T09:42:37.539Z,27.07
2022-10-18T09:45:14.198Z,26.33
2022-10-18T09:47:48.478Z,25.76
2022-10-18T09:50:23.198Z,25.12
2022-10-18T09:52:58.651Z,25.78
2022-10-18T09:55:31.730Z,27.21
2022-10-18T09:58:02.842Z,27.98
2022-10-18T10:00:34.622Z,27.73
2022-10-18T10:03:08.002Z,27.22
2022-10-18T10:05:35.484Z,24.47
2022-10-18T10:08:04.888Z,23.16
2022-10-18T10:10:35.383Z,23.15
2022-10-18T10:13:09.659Z,22.06
2022-10-18T10:15:42.391Z,21.93
2022-10-18T10:18:20.980Z,21.69
2022-10-18T10:20:51.425Z,21.37
2022-10-18T10:23:22.827Z,21.79
2022-10-18T10:25:52.849Z,22.07
2022-10-18T10:28:22.979Z,22.45
2022-10-18T10:30:51.169Z,22.32
2022-10-18T10:33:39.669Z,20.97
2022-10-18T10:36:18.307Z,21.23
2022-10-18T10:38:45.938Z,22.90
2022-10-18T10:41:21.578Z,23.58
2022-10-18T10:43:50.620Z,25.06
2022-10-18T10:46:23.012Z,26.97
2022-10-18T10:49:13.951Z,28.39
2022-10-18T10:51:43.629Z,28.93
2022-10-18T10:54:16.557Z,28.47
2022-10-18T10:56:55.226Z,27.73
2022-10-18T10:59:26.144Z,26.73
2022-10-18T11:02:20.678Z,26.90
2022-10-18T11:04:51.110Z,26.86
2022-10-18T11:07:25.656Z,26.87
2022-10-18T11:10:00.816Z,26.44
2022-10-18T11:12:34.527Z,27.58
2022-10-18T11:15:18.716Z,29.11
2022-10-18T11:20:33.805Z,29.42
2022-10-18T11:23:03.535Z,29.07
2022-10-18T11:26:01.364Z,27.58
2022-10-18T11:28:38.727Z,27.92
2022-10-18T11:31:18.224Z,27.93
2022-10-18T11:34:09.683Z,28.61
2022-10-18T11:37:02.288Z,27.92
2022-10-18T11:39:48.702Z,25.97
2022-10-18T11:42:25.580Z,27.07
2022-10-18T11:45:05.197Z,28.24
2022-10-18T11:47:42.305Z,28.45
2022-10-18T11:50:20.954Z,29.43
2022-10-18T11:53:03.332Z,31.11
2022-10-18T11:55:43.672Z,32.61
2022-10-18T11:58:28.068Z,32.97
2022-10-18T12:01:03.339Z,32.85
2022-10-18T12:03:51.711Z,30.17
2022-10-18T12:06:23.389Z,28.35
2022-10-18T12:08:59.772Z,28.39
2022-10-18T12:11:33.880Z,29.17
2022-10-18T12:14:05.037Z,30.49
2022-10-18T12:16:50.855Z,31.59
2022-10-18T12:19:26.900Z,32.48
2022-10-18T12:21:57.469Z,33.13
2022-10-18T12:24:31.749Z,33.68
2022-10-18T12:27:05.067Z,34.22
2022-10-18T12:29:38.761Z,34.66
2022-10-18T12:32:11.666Z,35.30
2022-10-18T12:34:45.020Z,35.67
2022-10-18T12:37:51.112Z,35.27
2022-10-18T12:40:24.350Z,36.21
2022-10-18T12:42:54.767Z,35.99
2022-10-18T12:45:29.368Z,36.68
2022-10-18T12:48:01.700Z,37.21
2022-10-18T12:50:36.145Z,38.67
2022-10-18T12:53:18.204Z,39.05
2022-10-18T12:55:49.245Z,39.00
2022-10-18T12:58:32.605Z,39.88
2022-10-18T13:01:03.005Z,39.56
2022-10-18T13:03:51.646Z,39.87
2022-10-18T13:06:19.773Z,39.71
2022-10-18T13:08:57.279Z,40.08
2022-10-18T13:12:03.797Z,40.07
2022-10-18T13:15:24.715Z,40.67
2022-10-18T13:18:12.491Z,41.11
2022-10-18T13:20:44.951Z,41.46
2022-10-18T13:23:51.164Z,41.83
2022-10-18T13:26:28.734Z,41.69
2022-10-18T13:29:18.294Z,42.04
2022-10-18T13:31:59.644Z,42.33
2022-10-18T13:34:41.208Z,42.28
2022-10-18T13:37:23.955Z,42.70
2022-10-18T13:40:15.307Z,43.31
2022-10-18T13:42:47.576Z,43.70
2022-10-18T13:45:45.544Z,43.73
2022-10-18T13:48:46.625Z,44.25
2022-10-18T13:51:31.256Z,44.73
2022-10-18T13:54:05.751Z,45.15
2022-10-18T13:56:53.351Z,45.43
2022-10-18T14:02:50.903Z,46.53
2022-10-18T14:05:37.633Z,46.56
2022-10-18T14:08:13.709Z,47.43
2022-10-18T14:11:02.312Z,47.77
2022-10-18T14:13:45.963Z,47.99
2022-10-18T14:16:28.947Z,48.70
2022-10-18T14:19:11.708Z,48.60
2022-10-18T14:21:44.259Z,48.76
2022-10-18T14:24:20.025Z,49.14
2022-10-18T14:26:47.894Z,49.03
2022-10-18T14:29:23.530Z,49.66
2022-10-18T14:31:55.580Z,49.64
2022-10-18T14:34:28.318Z,49.69
2022-10-18T14:36:56.124Z,49.76
2022-10-18T14:39:29.062Z,50.43
2022-10-18T14:41:58.551Z,50.29
2022-10-18T14:44:54.265Z,50.67
2022-10-18T14:47:31.576Z,50.87
2022-10-18T14:50:38.691Z,51.68
2022-10-18T14:53:46.565Z,51.69
2022-10-18T14:56:58.552Z,51.88
2022-10-18T14:59:40.268Z,51.82
2022-10-18T15:02:35.870Z,51.86
2022-10-18T15:05:42.887Z,51.75
2022-10-18T15:09:00.210Z,51.86
2022-10-18T15:12:02.308Z,51.52
2022-10-18T15:14:57.121Z,51.35
2022-10-18T15:24:48.142Z,52.06
2022-10-18T15:27:37.719Z,52.53
2022-10-18T15:30:22.517Z,52.51
2022-10-18T15:33:15.746Z,52.46
2022-10-18T15:35:57.318Z,52.54
2022-10-18T15:38:34.753Z,52.99
2022-10-18T15:41:42.365Z,53.13
2022-10-18T15:44:59.792Z,52.93
2022-10-18T15:51:37.469Z,53.22
2022-10-18T15:57:02.089Z,53.08
2022-10-18T16:03:29.464Z,53.38
2022-10-18T16:06:36.404Z,53.77
2022-10-18T16:12:23.384Z,54.06
2022-10-18T16:15:13.520Z,54.45
2022-10-18T16:18:03.258Z,55.01
2022-10-18T16:20:44.649Z,55.06
2022-10-18T16:23:41.829Z,55.29
2022-10-18T16:26:28.928Z,55.77
2022-10-18T16:32:44.546Z,55.81
2022-10-18T16:35:34.664Z,56.16
2022-10-18T16:38:35.099Z,56.24
2022-10-18T16:41:45.212Z,56.69
2022-10-18T16:44:40.296Z,56.75
2022-10-18T16:47:44.522Z,57.11
2022-10-18T16:50:49.480Z,57.25
2022-10-18T16:53:42.306Z,57.42
2022-10-18T16:56:43.100Z,57.42
2022-10-18T16:59:37.078Z,57.86
2022-10-18T17:05:41.329Z,58.48
2022-10-18T17:10:53.215Z,58.90
2022-10-18T19:02:22.909Z,65.63
2022-10-18T19:23:38.621Z,65.39
2022-10-18T22:53:40.599Z,71.95
2022-10-18T22:56:10.583Z,71.58
2022-10-18T22:58:38.559Z,70.57
2022-10-18T23:01:09.205Z,69.38
2022-10-18T23:03:38.075Z,70.80
2022-10-18T23:06:07.382Z,69.62
2022-10-18T23:08:35.253Z,69.88
2022-10-18T23:11:04.431Z,69.50
2022-10-18T23:13:34.124Z,69.58
2022-10-18T23:16:04.846Z,69.87
2022-10-18T23:18:33.493Z,69.50
2022-10-18T23:21:03.147Z,69.66
2022-10-18T23:23:35.811Z,70.12
2022-10-18T23:26:07.228Z,70.09
2022-10-18T23:28:45.766Z,70.07
2022-10-18T23:31:20.675Z,70.73
2022-10-18T23:34:00.398Z,70.41
2022-10-18T23:36:34.087Z,70.49
2022-10-18T23:39:07.012Z,70.70
2022-10-18T23:41:40.518Z,70.44
2022-10-18T23:44:12.116Z,70.98
2022-10-18T23:46:45.104Z,71.10
2022-10-18T23:49:21.731Z,70.17
2022-10-18T23:51:54.739Z,70.28
2022-10-18T23:54:24.466Z,70.65
2022-10-18T23:56:59.340Z,70.96
